sensor_id;sensor_type;location;lat;lon;timestamp;pressure;altitude;pressure_sealevel;temperature;humidity
16580;BME280;8402;51.466;6.806;2023-01-29T00:01:09;102800.75;;;-0.48;91.62
16580;BME280;8402;51.466;6.806;2023-01-29T00:03:43;102799.09;;;-0.49;91.59
16580;BME280;8402;51.466;6.806;2023-01-29T00:06:12;102788.81;;;-0.52;91.62
16580;BME280;8402;51.466;6.806;2023-01-29T00:08:42;102792.47;;;-0.53;91.61
16580;BME280;8402;51.466;6.806;2023-01-29T00:11:13;102800.69;;;-0.54;91.45
16580;BME280;8402;51.466;6.806;2023-01-29T00:13:42;102795.72;;;-0.58;91.42
16580;BME280;8402;51.466;6.806;2023-01-29T00:16:12;102794.06;;;-0.59;91.89
16580;BME280;8402;51.466;6.806;2023-01-29T00:18:45;102800.59;;;-0.61;91.79
16580;BME280;8402;51.466;6.806;2023-01-29T00:21:16;102791.97;;;-0.63;92.08
16580;BME280;8402;51.466;6.806;2023-01-29T00:23:47;102788.66;;;-0.65;92.15
16580;BME280;8402;51.466;6.806;2023-01-29T00:26:18;102789.69;;;-0.66;91.81
16580;BME280;8402;51.466;6.806;2023-01-29T00:28:48;102784.09;;;-0.71;91.95
16580;BME280;8402;51.466;6.806;2023-01-29T00:31:19;102784.47;;;-0.74;92.08
16580;BME280;8402;51.466;6.806;2023-01-29T00:33:52;102781.16;;;-0.76;92.30
16580;BME280;8402;51.466;6.806;2023-01-29T00:36:24;102775.00;;;-0.77;92.25
16580;BME280;8402;51.466;6.806;2023-01-29T00:38:54;102768.88;;;-0.77;92.26
16580;BME280;8402;51.466;6.806;2023-01-29T00:41:26;102771.88;;;-0.80;92.08
16580;BME280;8402;51.466;6.806;2023-01-29T00:44:08;102777.59;;;-0.84;92.07
16580;BME280;8402;51.466;6.806;2023-01-29T00:46:50;102776.97;;;-0.86;92.48
16580;BME280;8402;51.466;6.806;2023-01-29T00:49:23;102769.81;;;-0.85;92.27
16580;BME280;8402;51.466;6.806;2023-01-29T00:51:53;102780.63;;;-0.87;92.51
16580;BME280;8402;51.466;6.806;2023-01-29T00:54:35;102788.81;;;-0.88;92.30
16580;BME280;8402;51.466;6.806;2023-01-29T00:57:05;102778.34;;;-0.90;92.37
16580;BME280;8402;51.466;6.806;2023-01-29T00:59:35;102777.72;;;-0.92;92.35
16580;BME280;8402;51.466;6.806;2023-01-29T01:02:05;102781.41;;;-0.93;92.62
16580;BME280;8402;51.466;6.806;2023-01-29T01:04:50;102779.91;;;-0.95;92.75
16580;BME280;8402;51.466;6.806;2023-01-29T01:07:20;102777.44;;;-0.97;92.71
16580;BME280;8402;51.466;6.806;2023-01-29T01:09:49;102774.78;;;-0.97;92.61
16580;BME280;8402;51.466;6.806;2023-01-29T01:12:31;102788.31;;;-0.98;92.70
16580;BME280;8402;51.466;6.806;2023-01-29T01:15:02;102782.50;;;-1.02;92.69
16580;BME280;8402;51.466;6.806;2023-01-29T01:17:32;102783.72;;;-1.04;92.88
16580;BME280;8402;51.466;6.806;2023-01-29T01:20:05;102767.94;;;-1.06;92.80
16580;BME280;8402;51.466;6.806;2023-01-29T01:22:35;102764.88;;;-1.03;93.43
16580;BME280;8402;51.466;6.806;2023-01-29T01:25:08;102758.34;;;-1.00;93.59
16580;BME280;8402;51.466;6.806;2023-01-29T01:27:39;102751.81;;;-0.98;93.33
16580;BME280;8402;51.466;6.806;2023-01-29T01:30:11;102742.81;;;-0.97;93.39
16580;BME280;8402;51.466;6.806;2023-01-29T01:32:42;102729.28;;;-0.95;93.21
16580;BME280;8402;51.466;6.806;2023-01-29T01:35:14;102743.63;;;-0.96;93.00
16580;BME280;8402;51.466;6.806;2023-01-29T01:37:44;102739.13;;;-0.96;93.13
16580;BME280;8402;51.466;6.806;2023-01-29T01:40:16;102738.69;;;-0.99;92.98
16580;BME280;8402;51.466;6.806;2023-01-29T01:42:47;102733.91;;;-1.04;92.95
16580;BME280;8402;51.466;6.806;2023-01-29T01:45:20;102734.94;;;-1.05;93.34
16580;BME280;8402;51.466;6.806;2023-01-29T01:47:53;102733.66;;;-1.09;93.48
16580;BME280;8402;51.466;6.806;2023-01-29T01:50:30;102737.72;;;-1.13;93.60
16580;BME280;8402;51.466;6.806;2023-01-29T01:53:04;102745.03;;;-1.15;93.67
16580;BME280;8402;51.466;6.806;2023-01-29T01:55:38;102746.72;;;-1.14;93.60
16580;BME280;8402;51.466;6.806;2023-01-29T01:58:11;102753.69;;;-1.13;93.70
16580;BME280;8402;51.466;6.806;2023-01-29T02:00:43;102753.03;;;-1.15;93.44
16580;BME280;8402;51.466;6.806;2023-01-29T02:03:13;102741.75;;;-1.17;93.31
16580;BME280;8402;51.466;6.806;2023-01-29T02:05:59;102748.09;;;-1.18;93.80
16580;BME280;8402;51.466;6.806;2023-01-29T02:08:46;102757.72;;;-1.17;93.62
16580;BME280;8402;51.466;6.806;2023-01-29T02:11:30;102761.41;;;-1.18;94.02
16580;BME280;8402;51.466;6.806;2023-01-29T02:14:00;102763.88;;;-1.17;93.69
16580;BME280;8402;51.466;6.806;2023-01-29T02:16:32;102765.53;;;-1.16;93.80
16580;BME280;8402;51.466;6.806;2023-01-29T02:19:04;102772.50;;;-1.15;93.41
16580;BME280;8402;51.466;6.806;2023-01-29T02:22:04;102763.06;;;-1.17;93.88
16580;BME280;8402;51.466;6.806;2023-01-29T02:28:12;102772.06;;;-1.18;93.92
16580;BME280;8402;51.466;6.806;2023-01-29T02:30:48;102769.59;;;-1.20;93.96
16580;BME280;8402;51.466;6.806;2023-01-29T02:33:27;102771.59;;;-1.22;94.11
16580;BME280;8402;51.466;6.806;2023-01-29T02:36:06;102762.16;;;-1.24;94.47
16580;BME280;8402;51.466;6.806;2023-01-29T02:38:47;102760.50;;;-1.25;94.76
16580;BME280;8402;51.466;6.806;2023-01-29T02:41:24;102760.03;;;-1.29;94.89
16580;BME280;8402;51.466;6.806;2023-01-29T02:44:00;102753.06;;;-1.30;95.36
16580;BME280;8402;51.466;6.806;2023-01-29T02:46:35;102752.25;;;-1.30;95.85
16580;BME280;8402;51.466;6.806;2023-01-29T02:49:12;102752.25;;;-1.30;95.48
16580;BME280;8402;51.466;6.806;2023-01-29T02:51:49;102744.00;;;-1.35;97.30
16580;BME280;8402;51.466;6.806;2023-01-29T02:54:22;102747.66;;;-1.36;96.59
16580;BME280;8402;51.466;6.806;2023-01-29T02:56:56;102741.97;;;-1.33;97.41
16580;BME280;8402;51.466;6.806;2023-01-29T02:59:33;102746.91;;;-1.30;97.15
16580;BME280;8402;51.466;6.806;2023-01-29T03:02:07;102756.81;;;-1.24;96.82
16580;BME280;8402;51.466;6.806;2023-01-29T03:04:42;102754.78;;;-1.22;96.45
16580;BME280;8402;51.466;6.806;2023-01-29T03:07:16;102755.25;;;-1.19;96.66
16580;BME280;8402;51.466;6.806;2023-01-29T03:10:11;102761.03;;;-1.15;96.53
16580;BME280;8402;51.466;6.806;2023-01-29T03:12:46;102750.00;;;-1.12;96.12
16580;BME280;8402;51.466;6.806;2023-01-29T03:15:27;102757.00;;;-1.11;95.99
16580;BME280;8402;51.466;6.806;2023-01-29T03:18:07;102752.50;;;-1.11;95.65
16580;BME280;8402;51.466;6.806;2023-01-29T03:20:41;102764.34;;;-1.13;95.49
16580;BME280;8402;51.466;6.806;2023-01-29T03:23:18;102764.06;;;-1.18;95.71
16580;BME280;8402;51.466;6.806;2023-01-29T03:26:04;102768.59;;;-1.19;95.71
16580;BME280;8402;51.466;6.806;2023-01-29T03:28:47;102769.13;;;-1.23;96.03
16580;BME280;8402;51.466;6.806;2023-01-29T03:31:33;102764.81;;;-1.24;95.91
16580;BME280;8402;51.466;6.806;2023-01-29T03:34:17;102765.84;;;-1.25;96.09
16580;BME280;8402;51.466;6.806;2023-01-29T03:36:52;102767.88;;;-1.27;96.15
16580;BME280;8402;51.466;6.806;2023-01-29T03:39:25;102773.81;;;-1.25;96.00
16580;BME280;8402;51.466;6.806;2023-01-29T03:41:59;102769.50;;;-1.26;96.49
16580;BME280;8402;51.466;6.806;2023-01-29T03:44:34;102765.19;;;-1.27;96.59
16580;BME280;8402;51.466;6.806;2023-01-29T03:47:16;102766.56;;;-1.31;96.51
16580;BME280;8402;51.466;6.806;2023-01-29T03:49:55;102761.25;;;-1.31;96.85
16580;BME280;8402;51.466;6.806;2023-01-29T03:52:30;102758.38;;;-1.30;96.65
16580;BME280;8402;51.466;6.806;2023-01-29T03:55:10;102762.91;;;-1.30;97.11
16580;BME280;8402;51.466;6.806;2023-01-29T03:57:45;102756.75;;;-1.31;96.72
16580;BME280;8402;51.466;6.806;2023-01-29T04:00:22;102756.75;;;-1.31;96.51
16580;BME280;8402;51.466;6.806;2023-01-29T04:03:05;102756.94;;;-1.32;96.79
16580;BME280;8402;51.466;6.806;2023-01-29T04:05:42;102748.94;;;-1.32;96.65
16580;BME280;8402;51.466;6.806;2023-01-29T04:08:18;102745.25;;;-1.31;97.04
16580;BME280;8402;51.466;6.806;2023-01-29T04:10:51;102749.75;;;-1.32;96.87
16580;BME280;8402;51.466;6.806;2023-01-29T04:13:24;102736.25;;;-1.30;97.02
16580;BME280;8402;51.466;6.806;2023-01-29T04:15:57;102735.63;;;-1.32;97.87
16580;BME280;8402;51.466;6.806;2023-01-29T04:18:31;102724.34;;;-1.34;97.51
16580;BME280;8402;51.466;6.806;2023-01-29T04:21:01;102716.78;;;-1.31;97.71
16580;BME280;8402;51.466;6.806;2023-01-29T04:23:33;102712.94;;;-1.28;98.03
16580;BME280;8402;51.466;6.806;2023-01-29T04:26:17;102710.91;;;-1.26;98.34
16580;BME280;8402;51.466;6.806;2023-01-29T04:29:01;102703.19;;;-1.21;98.51
16580;BME280;8402;51.466;6.806;2023-01-29T04:31:38;102715.94;;;-1.17;98.59
16580;BME280;8402;51.466;6.806;2023-01-29T04:34:22;102720.44;;;-1.17;99.22
16580;BME280;8402;51.466;6.806;2023-01-29T04:37:03;102713.06;;;-1.15;98.56
16580;BME280;8402;51.466;6.806;2023-01-29T04:39:42;102714.38;;;-1.11;98.36
16580;BME280;8402;51.466;6.806;2023-01-29T04:42:24;102711.16;;;-1.06;98.43
16580;BME280;8402;51.466;6.806;2023-01-29T04:45:02;102710.56;;;-1.02;98.49
16580;BME280;8402;51.466;6.806;2023-01-29T04:47:35;102701.38;;;-0.99;98.32
16580;BME280;8402;51.466;6.806;2023-01-29T04:50:15;102702.22;;;-0.99;98.50
16580;BME280;8402;51.466;6.806;2023-01-29T04:52:53;102699.34;;;-0.97;98.44
16580;BME280;8402;51.466;6.806;2023-01-29T04:55:31;102703.66;;;-0.96;98.32
16580;BME280;8402;51.466;6.806;2023-01-29T04:58:05;102689.13;;;-0.94;98.50
16580;BME280;8402;51.466;6.806;2023-01-29T05:00:40;102684.19;;;-0.97;99.02
16580;BME280;8402;51.466;6.806;2023-01-29T05:03:13;102688.31;;;-0.94;99.19
16580;BME280;8402;51.466;6.806;2023-01-29T05:05:47;102678.03;;;-0.97;99.68
16580;BME280;8402;51.466;6.806;2023-01-29T05:08:20;102684.19;;;-0.97;100.00
16580;BME280;8402;51.466;6.806;2023-01-29T05:10:52;102680.91;;;-0.99;100.00
16580;BME280;8402;51.466;6.806;2023-01-29T05:13:24;102674.53;;;-0.98;100.00
16580;BME280;8402;51.466;6.806;2023-01-29T05:15:59;102672.25;;;-1.01;100.00
16580;BME280;8402;51.466;6.806;2023-01-29T05:18:31;102662.25;;;-0.99;100.00
16580;BME280;8402;51.466;6.806;2023-01-29T05:21:06;102662.03;;;-0.97;100.00
16580;BME280;8402;51.466;6.806;2023-01-29T05:23:36;102664.16;;;-0.93;100.00
16580;BME280;8402;51.466;6.806;2023-01-29T05:26:25;102658.44;;;-0.90;100.00
16580;BME280;8402;51.466;6.806;2023-01-29T05:29:08;102648.41;;;-0.88;100.00
16580;BME280;8402;51.466;6.806;2023-01-29T05:31:38;102659.72;;;-0.86;100.00
16580;BME280;8402;51.466;6.806;2023-01-29T05:34:08;102648.03;;;-0.85;100.00
16580;BME280;8402;51.466;6.806;2023-01-29T05:36:41;102649.47;;;-0.82;100.00
16580;BME280;8402;51.466;6.806;2023-01-29T05:39:10;102648.25;;;-0.79;100.00
16580;BME280;8402;51.466;6.806;2023-01-29T05:41:40;102646.25;;;-0.77;100.00
16580;BME280;8402;51.466;6.806;2023-01-29T05:44:11;102653.22;;;-0.76;100.00
16580;BME280;8402;51.466;6.806;2023-01-29T05:46:41;102646.69;;;-0.74;100.00
16580;BME280;8402;51.466;6.806;2023-01-29T05:49:12;102660.25;;;-0.69;100.00
16580;BME280;8402;51.466;6.806;2023-01-29T05:51:44;102666.00;;;-0.65;100.00
16580;BME280;8402;51.466;6.806;2023-01-29T05:54:14;102670.97;;;-0.62;100.00
16580;BME280;8402;51.466;6.806;2023-01-29T05:56:44;102669.56;;;-0.58;100.00
16580;BME280;8402;51.466;6.806;2023-01-29T05:59:14;102671.88;;;-0.55;100.00
16580;BME280;8402;51.466;6.806;2023-01-29T06:01:44;102674.53;;;-0.55;100.00
16580;BME280;8402;51.466;6.806;2023-01-29T06:04:14;102682.13;;;-0.52;100.00
16580;BME280;8402;51.466;6.806;2023-01-29T06:06:46;102681.75;;;-0.49;100.00
16580;BME280;8402;51.466;6.806;2023-01-29T06:09:16;102690.66;;;-0.42;100.00
16580;BME280;8402;51.466;6.806;2023-01-29T06:11:45;102695.38;;;-0.37;100.00
16580;BME280;8402;51.466;6.806;2023-01-29T06:14:15;102697.47;;;-0.33;100.00
16580;BME280;8402;51.466;6.806;2023-01-29T06:16:45;102702.41;;;-0.30;100.00
16580;BME280;8402;51.466;6.806;2023-01-29T06:19:15;102713.75;;;-0.28;100.00
16580;BME280;8402;51.466;6.806;2023-01-29T06:21:49;102706.56;;;-0.27;100.00
16580;BME280;8402;51.466;6.806;2023-01-29T06:24:18;102697.06;;;-0.30;99.74
16580;BME280;8402;51.466;6.806;2023-01-29T06:26:48;102707.75;;;-0.30;100.00
16580;BME280;8402;51.466;6.806;2023-01-29T06:29:18;102709.22;;;-0.27;100.00
16580;BME280;8402;51.466;6.806;2023-01-29T06:31:48;102708.56;;;-0.29;100.00
16580;BME280;8402;51.466;6.806;2023-01-29T06:34:17;102706.94;;;-0.30;100.00
16580;BME280;8402;51.466;6.806;2023-01-29T06:36:50;102699.94;;;-0.31;100.00
16580;BME280;8402;51.466;6.806;2023-01-29T06:39:20;102684.75;;;-0.31;100.00
16580;BME280;8402;51.466;6.806;2023-01-29T06:41:49;102675.94;;;-0.31;100.00
16580;BME280;8402;51.466;6.806;2023-01-29T06:44:19;102672.06;;;-0.29;100.00
16580;BME280;8402;51.466;6.806;2023-01-29T06:46:49;102667.50;;;-0.35;100.00
16580;BME280;8402;51.466;6.806;2023-01-29T06:49:19;102673.22;;;-0.38;100.00
16580;BME280;8402;51.466;6.806;2023-01-29T06:51:51;102665.63;;;-0.41;100.00
16580;BME280;8402;51.466;6.806;2023-01-29T06:54:21;102675.66;;;-0.43;100.00
16580;BME280;8402;51.466;6.806;2023-01-29T06:56:51;102670.94;;;-0.41;100.00
16580;BME280;8402;51.466;6.806;2023-01-29T06:59:21;102676.09;;;-0.39;100.00
16580;BME280;8402;51.466;6.806;2023-01-29T07:01:51;102680.84;;;-0.35;100.00
16580;BME280;8402;51.466;6.806;2023-01-29T07:04:21;102669.16;;;-0.34;100.00
16580;BME280;8402;51.466;6.806;2023-01-29T07:06:54;102672.03;;;-0.35;100.00
16580;BME280;8402;51.466;6.806;2023-01-29T07:09:23;102667.88;;;-0.38;100.00
16580;BME280;8402;51.466;6.806;2023-01-29T07:11:53;102674.50;;;-0.34;100.00
16580;BME280;8402;51.466;6.806;2023-01-29T07:14:23;102667.50;;;-0.35;100.00
16580;BME280;8402;51.466;6.806;2023-01-29T07:16:53;102677.97;;;-0.33;100.00
16580;BME280;8402;51.466;6.806;2023-01-29T07:19:22;102675.75;;;-0.30;100.00
16580;BME280;8402;51.466;6.806;2023-01-29T07:21:55;102682.34;;;-0.25;100.00
16580;BME280;8402;51.466;6.806;2023-01-29T07:24:28;102682.41;;;-0.19;100.00
16580;BME280;8402;51.466;6.806;2023-01-29T07:26:57;102671.31;;;-0.16;100.00
16580;BME280;8402;51.466;6.806;2023-01-29T07:29:27;102674.44;;;-0.12;100.00
16580;BME280;8402;51.466;6.806;2023-01-29T07:31:57;102678.75;;;-0.11;100.00
16580;BME280;8402;51.466;6.806;2023-01-29T07:34:27;102684.13;;;-0.05;100.00
16580;BME280;8402;51.466;6.806;2023-01-29T07:36:59;102688.44;;;-0.04;100.00
16580;BME280;8402;51.466;6.806;2023-01-29T07:39:29;102680.88;;;0.00;100.00
16580;BME280;8402;51.466;6.806;2023-01-29T07:41:59;102686.84;;;0.02;100.00
16580;BME280;8402;51.466;6.806;2023-01-29T07:44:29;102681.25;;;-0.03;100.00
16580;BME280;8402;51.466;6.806;2023-01-29T07:46:58;102665.88;;;-0.01;100.00
16580;BME280;8402;51.466;6.806;2023-01-29T07:49:28;102668.75;;;-0.03;100.00
16580;BME280;8402;51.466;6.806;2023-01-29T07:52:01;102676.75;;;-0.03;100.00
16580;BME280;8402;51.466;6.806;2023-01-29T07:54:31;102668.06;;;-0.11;100.00
16580;BME280;8402;51.466;6.806;2023-01-29T07:57:00;102670.59;;;-0.03;100.00
16580;BME280;8402;51.466;6.806;2023-01-29T07:59:30;102671.22;;;-0.01;100.00
16580;BME280;8402;51.466;6.806;2023-01-29T08:02:00;102677.16;;;-0.06;100.00
16580;BME280;8402;51.466;6.806;2023-01-29T08:04:30;102670.59;;;-0.03;100.00
16580;BME280;8402;51.466;6.806;2023-01-29T08:07:02;102664.88;;;0.00;100.00
16580;BME280;8402;51.466;6.806;2023-01-29T08:09:35;102662.81;;;0.02;100.00
16580;BME280;8402;51.466;6.806;2023-01-29T08:12:05;102670.44;;;0.05;100.00
16580;BME280;8402;51.466;6.806;2023-01-29T08:14:35;102672.31;;;0.11;100.00
16580;BME280;8402;51.466;6.806;2023-01-29T08:17:05;102674.56;;;0.14;100.00
16580;BME280;8402;51.466;6.806;2023-01-29T08:19:35;102669.88;;;0.16;100.00
16580;BME280;8402;51.466;6.806;2023-01-29T08:22:07;102667.84;;;0.18;100.00
16580;BME280;8402;51.466;6.806;2023-01-29T08:24:37;102665.78;;;0.20;100.00
16580;BME280;8402;51.466;6.806;2023-01-29T08:27:25;102648.13;;;0.19;100.00
16580;BME280;8402;51.466;6.806;2023-01-29T08:29:55;102635.81;;;0.18;100.00
16580;BME280;8402;51.466;6.806;2023-01-29T08:32:25;102643.00;;;0.18;100.00
16580;BME280;8402;51.466;6.806;2023-01-29T08:34:55;102632.31;;;0.18;100.00
16580;BME280;8402;51.466;6.806;2023-01-29T08:37:27;102641.75;;;0.20;100.00
16580;BME280;8402;51.466;6.806;2023-01-29T08:39:57;102648.13;;;0.19;100.00
16580;BME280;8402;51.466;6.806;2023-01-29T08:42:27;102650.16;;;0.17;100.00
16580;BME280;8402;51.466;6.806;2023-01-29T08:44:57;102648.13;;;0.19;100.00
16580;BME280;8402;51.466;6.806;2023-01-29T08:47:27;102636.66;;;0.25;100.00
16580;BME280;8402;51.466;6.806;2023-01-29T08:49:57;102630.91;;;0.28;100.00
16580;BME280;8402;51.466;6.806;2023-01-29T08:52:29;102625.78;;;0.27;100.00
16580;BME280;8402;51.466;6.806;2023-01-29T08:54:59;102622.72;;;0.30;100.00
16580;BME280;8402;51.466;6.806;2023-01-29T08:57:29;102618.81;;;0.33;100.00
16580;BME280;8402;51.466;6.806;2023-01-29T08:59:59;102620.47;;;0.34;100.00
16580;BME280;8402;51.466;6.806;2023-01-29T09:02:29;102617.41;;;0.37;100.00
16580;BME280;8402;51.466;6.806;2023-01-29T09:04:59;102625.00;;;0.40;100.00
16580;BME280;8402;51.466;6.806;2023-01-29T09:07:32;102621.72;;;0.38;100.00
16580;BME280;8402;51.466;6.806;2023-01-29T09:10:02;102621.53;;;0.46;100.00
16580;BME280;8402;51.466;6.806;2023-01-29T09:12:32;102607.59;;;0.50;100.00
16580;BME280;8402;51.466;6.806;2023-01-29T09:15:03;102615.41;;;0.52;100.00
16580;BME280;8402;51.466;6.806;2023-01-29T09:17:32;102611.91;;;0.51;100.00
16580;BME280;8402;51.466;6.806;2023-01-29T09:20:03;102618.44;;;0.49;100.00
16580;BME280;8402;51.466;6.806;2023-01-29T09:22:36;102618.28;;;0.50;100.00
16580;BME280;8402;51.466;6.806;2023-01-29T09:25:07;102609.63;;;0.55;100.00
16580;BME280;8402;51.466;6.806;2023-01-29T09:27:37;102606.59;;;0.58;99.97
16580;BME280;8402;51.466;6.806;2023-01-29T09:30:08;102598.56;;;0.58;100.00
16580;BME280;8402;51.466;6.806;2023-01-29T09:32:38;102601.84;;;0.60;100.00
16580;BME280;8402;51.466;6.806;2023-01-29T09:35:19;102598.34;;;0.60;99.84
16580;BME280;8402;51.466;6.806;2023-01-29T09:37:52;102591.78;;;0.62;100.00
16580;BME280;8402;51.466;6.806;2023-01-29T09:40:24;102598.75;;;0.63;99.71
16580;BME280;8402;51.466;6.806;2023-01-29T09:42:57;102587.91;;;0.65;99.88
16580;BME280;8402;51.466;6.806;2023-01-29T09:45:30;102588.31;;;0.68;100.00
16580;BME280;8402;51.466;6.806;2023-01-29T09:48:02;102587.88;;;0.71;99.75
16580;BME280;8402;51.466;6.806;2023-01-29T09:50:36;102585.41;;;0.63;99.61
16580;BME280;8402;51.466;6.806;2023-01-29T09:53:16;102588.72;;;0.65;99.48
16580;BME280;8402;51.466;6.806;2023-01-29T09:55:50;102591.41;;;0.65;99.55
16580;BME280;8402;51.466;6.806;2023-01-29T09:58:26;102601.66;;;0.68;99.86
16580;BME280;8402;51.466;6.806;2023-01-29T10:01:05;102602.28;;;0.70;99.96
16580;BME280;8402;51.466;6.806;2023-01-29T10:03:47;102607.63;;;0.70;99.59
16580;BME280;8402;51.466;6.806;2023-01-29T10:06:28;102605.59;;;0.79;99.71
16580;BME280;8402;51.466;6.806;2023-01-29T10:12:15;102597.38;;;0.87;99.58
16580;BME280;8402;51.466;6.806;2023-01-29T10:14:55;102602.75;;;0.94;99.79
16580;BME280;8402;51.466;6.806;2023-01-29T10:17:48;102582.38;;;0.93;99.42
16580;BME280;8402;51.466;6.806;2023-01-29T10:20:38;102593.28;;;0.98;99.44
16580;BME280;8402;51.466;6.806;2023-01-29T10:23:22;102586.72;;;0.94;98.59
16580;BME280;8402;51.466;6.806;2023-01-29T10:25:56;102587.13;;;1.04;99.07
16580;BME280;8402;51.466;6.806;2023-01-29T10:28:30;102592.47;;;1.10;99.20
16580;BME280;8402;51.466;6.806;2023-01-29T10:31:05;102578.66;;;1.14;98.94
16580;BME280;8402;51.466;6.806;2023-01-29T10:33:40;102588.34;;;1.21;99.16
16580;BME280;8402;51.466;6.806;2023-01-29T10:36:33;102582.59;;;1.24;98.93
16580;BME280;8402;51.466;6.806;2023-01-29T10:39:04;102581.78;;;1.17;98.09
16580;BME280;8402;51.466;6.806;2023-01-29T10:41:47;102572.72;;;1.18;98.05
16580;BME280;8402;51.466;6.806;2023-01-29T10:44:28;102572.94;;;1.23;98.06
16580;BME280;8402;51.466;6.806;2023-01-29T10:50:20;102559.56;;;1.23;98.55
16580;BME280;8402;51.466;6.806;2023-01-29T10:53:21;102556.47;;;1.26;98.53
16580;BME280;8402;51.466;6.806;2023-01-29T10:56:01;102551.72;;;1.28;98.41
16580;BME280;8402;51.466;6.806;2023-01-29T10:58:54;102550.88;;;1.34;98.66
16580;BME280;8402;51.466;6.806;2023-01-29T11:01:25;102550.06;;;1.41;98.62
16580;BME280;8402;51.466;6.806;2023-01-29T11:03:57;102549.25;;;1.40;98.55
16580;BME280;8402;51.466;6.806;2023-01-29T11:06:31;102542.63;;;1.43;98.12
16580;BME280;8402;51.466;6.806;2023-01-29T11:09:05;102538.97;;;1.44;98.16
16580;BME280;8402;51.466;6.806;2023-01-29T11:11:40;102531.13;;;1.42;98.12
16580;BME280;8402;51.466;6.806;2023-01-29T11:14:25;102523.09;;;1.42;97.65
16580;BME280;8402;51.466;6.806;2023-01-29T11:16:55;102518.78;;;1.48;97.70
16580;BME280;8402;51.466;6.806;2023-01-29T11:19:36;102513.03;;;1.51;98.03
16580;BME280;8402;51.466;6.806;2023-01-29T11:22:12;102514.66;;;1.52;97.49
16580;BME280;8402;51.466;6.806;2023-01-29T11:24:43;102510.50;;;1.56;97.63
16580;BME280;8402;51.466;6.806;2023-01-29T11:27:14;102508.88;;;1.55;97.33
16580;BME280;8402;51.466;6.806;2023-01-29T11:29:52;102495.69;;;1.60;98.05
16580;BME280;8402;51.466;6.806;2023-01-29T11:32:28;102497.94;;;1.63;97.82
16580;BME280;8402;51.466;6.806;2023-01-29T11:35:00;102498.94;;;1.69;97.96
16580;BME280;8402;51.466;6.806;2023-01-29T11:37:33;102497.28;;;1.74;97.79
16580;BME280;8402;51.466;6.806;2023-01-29T11:40:32;102489.25;;;1.74;97.83
16580;BME280;8402;51.466;6.806;2023-01-29T11:43:21;102478.34;;;1.76;97.42
16580;BME280;8402;51.466;6.806;2023-01-29T11:45:56;102482.44;;;1.78;97.50
16580;BME280;8402;51.466;6.806;2023-01-29T11:48:33;102471.13;;;1.76;97.05
16580;BME280;8402;51.466;6.806;2023-01-29T11:51:10;102463.09;;;1.76;96.88
16580;BME280;8402;51.466;6.806;2023-01-29T11:53:42;102457.56;;;1.71;96.74
16580;BME280;8402;51.466;6.806;2023-01-29T11:56:20;102441.69;;;1.76;96.47
16580;BME280;8402;51.466;6.806;2023-01-29T11:58:54;102442.47;;;1.83;96.75
16580;BME280;8402;51.466;6.806;2023-01-29T12:01:34;102443.69;;;1.87;97.18
16580;BME280;8402;51.466;6.806;2023-01-29T12:04:15;102440.19;;;1.93;96.95
16580;BME280;8402;51.466;6.806;2023-01-29T12:06:49;102435.41;;;1.96;96.74
16580;BME280;8402;51.466;6.806;2023-01-29T12:09:22;102425.50;;;2.03;97.31
16580;BME280;8402;51.466;6.806;2023-01-29T12:11:53;102430.22;;;2.07;97.13
16580;BME280;8402;51.466;6.806;2023-01-29T12:14:26;102421.50;;;2.12;97.25
16580;BME280;8402;51.466;6.806;2023-01-29T12:17:06;102413.47;;;2.12;97.40
16580;BME280;8402;51.466;6.806;2023-01-29T12:19:40;102396.59;;;2.11;96.81
16580;BME280;8402;51.466;6.806;2023-01-29T12:22:17;102385.50;;;2.08;96.65
16580;BME280;8402;51.466;6.806;2023-01-29T12:24:53;102382.78;;;2.14;96.59
16580;BME280;8402;51.466;6.806;2023-01-29T12:27:30;102367.31;;;2.16;96.56
16580;BME280;8402;51.466;6.806;2023-01-29T12:30:06;102361.91;;;2.23;97.01
16580;BME280;8402;51.466;6.806;2023-01-29T12:32:49;102357.72;;;2.27;96.82
16580;BME280;8402;51.466;6.806;2023-01-29T12:35:23;102351.28;;;2.35;96.81
16580;BME280;8402;51.466;6.806;2023-01-29T12:37:59;102347.13;;;2.39;96.58
16580;BME280;8402;51.466;6.806;2023-01-29T12:40:36;102349.75;;;2.45;96.82
16580;BME280;8402;51.466;6.806;2023-01-29T12:43:14;102343.94;;;2.48;96.33
16580;BME280;8402;51.466;6.806;2023-01-29T12:45:50;102343.53;;;2.52;96.82
16580;BME280;8402;51.466;6.806;2023-01-29T12:48:27;102337.72;;;2.55;96.15
16580;BME280;8402;51.466;6.806;2023-01-29T12:51:06;102340.16;;;2.56;96.51
16580;BME280;8402;51.466;6.806;2023-01-29T12:53:40;102324.47;;;2.60;96.67
16580;BME280;8402;51.466;6.806;2023-01-29T12:56:14;102324.00;;;2.63;96.89
16580;BME280;8402;51.466;6.806;2023-01-29T12:58:47;102316.59;;;2.65;96.28
16580;BME280;8402;51.466;6.806;2023-01-29T13:01:25;102310.78;;;2.68;95.83
16580;BME280;8402;51.466;6.806;2023-01-29T13:04:02;102310.78;;;2.68;95.66
16580;BME280;8402;51.466;6.806;2023-01-29T13:06:37;102316.06;;;2.74;96.07
16580;BME280;8402;51.466;6.806;2023-01-29T13:09:13;102315.59;;;2.78;95.97
16580;BME280;8402;51.466;6.806;2023-01-29T13:11:50;102305.69;;;2.78;95.34
16580;BME280;8402;51.466;6.806;2023-01-29T13:14:24;102302.44;;;2.76;95.49
16580;BME280;8402;51.466;6.806;2023-01-29T13:17:05;102299.16;;;2.74;94.97
16580;BME280;8402;51.466;6.806;2023-01-29T13:19:42;102303.63;;;2.80;95.92
16580;BME280;8402;51.466;6.806;2023-01-29T13:22:18;102297.97;;;2.88;96.21
16580;BME280;8402;51.466;6.806;2023-01-29T13:24:49;102299.75;;;2.94;96.29
16580;BME280;8402;51.466;6.806;2023-01-29T13:27:33;102301.41;;;2.95;95.75
16580;BME280;8402;51.466;6.806;2023-01-29T13:30:05;102304.06;;;2.95;95.50
16580;BME280;8402;51.466;6.806;2023-01-29T13:32:35;102292.31;;;2.96;95.33
16580;BME280;8402;51.466;6.806;2023-01-29T13:35:12;102290.44;;;2.97;95.10
16580;BME280;8402;51.466;6.806;2023-01-29T13:37:47;102292.88;;;2.98;95.35
16580;BME280;8402;51.466;6.806;2023-01-29T13:40:22;102291.41;;;3.02;95.65
16580;BME280;8402;51.466;6.806;2023-01-29T13:42:53;102290.34;;;3.03;95.82
16580;BME280;8402;51.466;6.806;2023-01-29T13:45:32;102293.34;;;2.95;95.01
16580;BME280;8402;51.466;6.806;2023-01-29T13:48:18;102294.81;;;2.91;94.34